Woodlake, CA

5:45 AM PDT on September 30, 2014 (GMT -0700)
HWY198 | Change Station
CLOSE
Current Station
Personal Weather Station
Location: Farmersville, CA
Elevation: 377 ft
Nearby Weather Stations

Elev 377 ft 36.32 °N, 119.21 °W | Updated 30 seconds ago

Clear
Clear
57.0 °F
Feels Like 57.0 °F
N
0.0
Wind Variable Wind from South
Gusts 0.0 mph

Today
High -- | Low -- °F
--% Chance of Precip.
Yesterday
High -- | Low -- °F
Precip. -- in
6:50 AM 6:41 PM
Waxing Crescent, 36% visible
Pressure 29.93 in
Visibility 10.0 miles
Clouds Clear
Dew Point 50 °F
Humidity 78%
Rainfall 0.00 in
Snow Depth 0 in , 0 in , 0 in
UV 0 out of 12
Pollen 5.40 out of 12
PM2.5 Good
Flu Activity Not available.
METAR KVIS 301235Z AUTO 12003KT 10SM CLR 14/08 A2993 RMK AO1

More Conditions Fewer Conditions

Pressure 29.93 in
Visibility 10.0 miles
Clouds Clear
Dew Point 50 °F
Humidity 78%
Rainfall 0.00 in
Snow Depth 0 in , 0 in , 0 in
UV 0 out of 12
Pollen 5.40 out of 12
PM2.5 Good
Flu Activity Not available.
METAR KVIS 301235Z AUTO 12003KT 10SM CLR 14/08 A2993 RMK AO1

More Conditions Fewer Conditions

10-Day Weather Forecast

Almanac

Astronomy

Sep. 30, 2014 Rise Set
Actual Time 6:50 AM PDT 6:41 PM PDT
Civil Twilight 6:25 AM PDT 7:06 PM PDT
Nautical Twilight 5:55 AM PDT 7:36 PM PDT
Astronomical Twilight 5:25 AM PDT 8:06 PM PDT
Moon 12:55 PM PDT 11:23 PM PDT
Length of Visible Light 12h 41m
Length of Day
11h 50m
Tomorrow will be 2m 17s shorter.
Waxing Crescent, 36% of the Moon is Illuminated
Today
Waxing Crescent
Oct 1
First Quarter
Oct 8
Full
Oct 15
Last Quarter
Oct 23
New

Today's Extremes

State Highs State Lows

Community

WunderPhotos

Upload Photos

1,757,625 photos uploaded!

Nearby

Air Quality

  Air Quality AQ Index Pollutant
Yesterday Good
OZONE
Yesterday Good
PM2.5
Current Good
PM2.5
Tuesday Moderate
OZONE
Wednesday Moderate
OZONE
Thursday Moderate
OZONE
Friday Moderate
OZONE
Saturday Moderate
OZONE

Snow Depth

Station Depth Elevation
Independence Lake 0 in 8450 ft
Independence Camp 0 in 7000 ft
Summit Meadow 0 in 9122 ft
Spratt Creek 1 in 6200 ft
Monitor Pass 1 in 8350 ft

Earthquake Activity

City Distance Mag. Time & Date
South Dos Palos, California 97 miles 2.5 9:18 PM PDT
2014-09-29
South Dos Palos, California 97 miles 2.7 8:46 PM PDT
2014-09-28
South Dos Palos, California 97 miles 4.4 1:45 PM PDT
2014-09-28
South Dos Palos, California 98 miles 2.6 12:49 PM PDT
2014-09-28
Minimum magnitude displayed is 2.5.

Coastal Water Temperatures

Place Temperature
No Stations Reporting

Nearby Weather Stations